createdAt,value
2023-02-09T00:01:31.732Z,15.20
2023-02-09T00:04:00.271Z,13.97
2023-02-09T00:06:29.978Z,12.70
2023-02-09T00:08:58.500Z,12.20
2023-02-09T00:11:46.308Z,12.90
2023-02-09T00:14:15.247Z,12.00
2023-02-09T00:16:42.849Z,10.67
2023-02-09T00:19:10.657Z,10.10
2023-02-09T00:21:37.721Z,10.10
2023-02-09T00:24:05.258Z,11.03
2023-02-09T00:26:32.202Z,10.53
2023-02-09T00:28:59.523Z,9.87
2023-02-09T00:31:27.087Z,10.00
2023-02-09T00:33:54.015Z,8.90
2023-02-09T00:36:20.885Z,9.13
2023-02-09T00:38:47.788Z,8.97
2023-02-09T00:41:18.345Z,9.33
2023-02-09T00:43:45.251Z,8.57
2023-02-09T00:46:12.161Z,8.77
2023-02-09T00:48:38.995Z,9.03
2023-02-09T00:51:06.106Z,9.20
2023-02-09T00:53:33.007Z,9.97
2023-02-09T00:56:00.046Z,9.97
2023-02-09T00:58:27.144Z,9.27
2023-02-09T01:00:54.024Z,9.83
2023-02-09T01:03:21.043Z,8.77
2023-02-09T01:05:47.906Z,9.27
2023-02-09T01:08:14.836Z,9.10
2023-02-09T01:10:41.759Z,9.10
2023-02-09T01:13:09.010Z,8.60
2023-02-09T01:15:38.837Z,10.07
2023-02-09T01:18:07.492Z,10.03
2023-02-09T01:20:34.993Z,9.17
2023-02-09T01:23:02.024Z,12.67
2023-02-09T01:25:28.918Z,11.40
2023-02-09T01:27:55.819Z,9.70
2023-02-09T01:30:23.250Z,10.70
2023-02-09T01:32:50.105Z,9.80
2023-02-09T01:35:17.623Z,9.33
2023-02-09T01:37:44.550Z,9.33
2023-02-09T01:40:12.249Z,9.03
2023-02-09T01:42:39.382Z,9.50
2023-02-09T01:45:40.256Z,10.40
2023-02-09T01:48:07.210Z,10.70
2023-02-09T01:50:37.496Z,10.50
2023-02-09T01:53:04.641Z,10.40
2023-02-09T01:55:34.760Z,11.27
2023-02-09T01:58:07.374Z,10.50
2023-02-09T02:00:34.322Z,10.40
2023-02-09T02:03:06.404Z,10.27
2023-02-09T02:05:36.364Z,9.33
2023-02-09T02:08:35.376Z,10.60
2023-02-09T02:11:02.669Z,11.40
2023-02-09T02:13:29.558Z,10.80
2023-02-09T02:16:38.063Z,10.90
2023-02-09T02:19:33.791Z,11.30
2023-02-09T02:22:30.125Z,10.00
2023-02-09T02:25:41.349Z,14.73
2023-02-09T02:28:51.500Z,11.70
2023-02-09T02:31:59.109Z,10.20
2023-02-09T02:34:36.922Z,11.03
2023-02-09T02:37:16.100Z,10.10
2023-02-09T02:40:13.144Z,10.73
2023-02-09T02:42:49.990Z,10.90
2023-02-09T02:45:51.283Z,11.20
2023-02-09T02:48:58.990Z,11.30
2023-02-09T02:51:45.530Z,12.10
2023-02-09T02:54:19.658Z,11.70
2023-02-09T02:56:53.625Z,12.57
2023-02-09T02:59:27.105Z,11.13
2023-02-09T03:02:06.458Z,11.40
2023-02-09T03:04:35.661Z,12.43
2023-02-09T03:07:06.330Z,11.13
2023-02-09T03:09:33.529Z,11.47
2023-02-09T03:12:33.510Z,11.50
2023-02-09T03:21:52.520Z,10.50
2023-02-09T03:25:05.858Z,11.43
2023-02-09T03:27:34.162Z,11.30
2023-02-09T03:30:04.553Z,11.37
2023-02-09T03:32:32.859Z,11.90
2023-02-09T03:34:59.887Z,11.90
2023-02-09T03:37:26.781Z,11.80
2023-02-09T03:39:53.719Z,12.03
2023-02-09T03:42:20.632Z,11.53
2023-02-09T03:44:47.517Z,11.10
2023-02-09T03:47:14.441Z,12.00
2023-02-09T03:49:42.054Z,13.13
2023-02-09T03:52:14.199Z,11.23
2023-02-09T03:54:41.436Z,13.60
2023-02-09T03:57:08.906Z,13.17
2023-02-09T03:59:37.698Z,12.97
2023-02-09T04:02:06.753Z,13.33
2023-02-09T04:04:34.358Z,12.87
2023-02-09T04:07:01.356Z,12.40
2023-02-09T04:09:28.613Z,13.50
2023-02-09T04:11:56.034Z,12.00
2023-02-09T04:14:23.230Z,13.27
2023-02-09T04:16:50.134Z,11.57
2023-02-09T04:19:17.383Z,13.13
2023-02-09T04:21:44.390Z,12.80
2023-02-09T04:24:11.512Z,12.80
2023-02-09T04:26:38.409Z,13.10
2023-02-09T04:29:05.318Z,12.60
2023-02-09T04:31:32.535Z,12.90
2023-02-09T04:33:59.428Z,12.30
2023-02-09T04:36:26.285Z,11.77
2023-02-09T04:38:53.250Z,13.00
2023-02-09T04:41:20.174Z,12.20
2023-02-09T04:43:47.350Z,12.07
2023-02-09T04:46:16.279Z,11.57
2023-02-09T04:48:43.708Z,12.60
2023-02-09T04:51:10.786Z,12.00
2023-02-09T04:53:38.116Z,12.20
2023-02-09T04:56:05.796Z,13.03
2023-02-09T04:58:51.495Z,13.43
2023-02-09T05:01:24.911Z,12.37
2023-02-09T05:03:52.676Z,11.83
2023-02-09T05:06:20.277Z,13.53
2023-02-09T05:08:47.244Z,12.10
2023-02-09T05:11:14.095Z,11.50
2023-02-09T05:13:41.633Z,13.00
2023-02-09T05:16:12.381Z,11.67
2023-02-09T05:18:39.332Z,12.60
2023-02-09T05:21:06.578Z,12.43
2023-02-09T05:23:33.710Z,12.83
2023-02-09T05:26:00.724Z,12.30
2023-02-09T05:28:27.821Z,12.90
2023-02-09T05:30:55.123Z,11.93
2023-02-09T05:33:23.621Z,11.97
2023-02-09T05:35:56.053Z,13.17
2023-02-09T05:38:23.101Z,11.83
2023-02-09T05:40:50.482Z,11.67
2023-02-09T05:43:17.896Z,12.70
2023-02-09T05:45:47.931Z,12.83
2023-02-09T05:48:14.854Z,14.10
2023-02-09T05:50:41.858Z,13.63
2023-02-09T05:53:09.590Z,13.73
2023-02-09T05:55:36.833Z,14.90
2023-02-09T05:58:04.005Z,13.90
2023-02-09T06:00:31.074Z,14.10
2023-02-09T06:02:58.744Z,15.00
2023-02-09T06:05:25.959Z,14.50
2023-02-09T06:07:52.959Z,14.70
2023-02-09T06:10:20.056Z,13.70
2023-02-09T06:12:47.175Z,15.07
2023-02-09T06:15:16.437Z,14.87
2023-02-09T06:17:43.376Z,14.57
2023-02-09T06:20:11.013Z,14.40
2023-02-09T06:22:37.849Z,15.10
2023-02-09T06:25:05.062Z,15.90
2023-02-09T06:28:02.933Z,15.73
2023-02-09T06:30:53.883Z,14.43
2023-02-09T06:33:21.158Z,16.03
2023-02-09T06:35:48.065Z,14.83
2023-02-09T06:38:15.019Z,16.07
2023-02-09T06:40:41.996Z,15.90
2023-02-09T06:43:08.925Z,17.87
2023-02-09T06:45:39.567Z,16.67
2023-02-09T06:48:07.723Z,16.63
2023-02-09T06:50:38.922Z,15.37
2023-02-09T06:53:06.578Z,16.73
2023-02-09T06:55:34.087Z,16.67
2023-02-09T06:58:01.217Z,15.03
2023-02-09T07:00:28.264Z,16.23
2023-02-09T07:02:55.365Z,15.30
2023-02-09T07:05:22.342Z,17.10
2023-02-09T07:07:49.334Z,18.13
2023-02-09T07:10:17.644Z,17.20
2023-02-09T07:12:45.186Z,17.10
2023-02-09T07:15:13.415Z,16.77
2023-02-09T07:17:40.724Z,17.30
2023-02-09T07:20:09.330Z,16.10
2023-02-09T07:22:36.383Z,17.60
2023-02-09T07:25:03.392Z,16.30
2023-02-09T07:27:30.246Z,17.40
2023-02-09T07:29:57.849Z,15.90
2023-02-09T07:32:28.226Z,15.77
2023-02-09T07:34:55.167Z,19.90
2023-02-09T07:37:22.021Z,17.20
2023-02-09T07:39:49.235Z,15.73
2023-02-09T07:42:16.279Z,20.30
2023-02-09T07:44:43.275Z,23.50
2023-02-09T07:47:10.165Z,25.40
2023-02-09T07:49:37.042Z,20.70
2023-02-09T07:52:04.248Z,14.43
2023-02-09T07:54:31.258Z,13.10
2023-02-09T07:56:58.262Z,14.20
2023-02-09T07:59:25.196Z,14.00
2023-02-09T08:01:52.201Z,12.30
2023-02-09T08:04:19.205Z,14.37
2023-02-09T08:06:46.863Z,13.30
2023-02-09T08:09:16.619Z,14.03
2023-02-09T08:11:57.724Z,15.10
2023-02-09T08:14:48.472Z,16.50
2023-02-09T08:17:23.228Z,15.70
2023-02-09T08:20:17.708Z,14.53
2023-02-09T08:22:48.234Z,17.43
2023-02-09T08:25:21.273Z,13.60
2023-02-09T08:27:48.607Z,14.03
2023-02-09T08:30:18.268Z,15.00
2023-02-09T08:32:45.704Z,12.83
2023-02-09T08:35:12.752Z,13.77
2023-02-09T08:37:39.605Z,12.53
2023-02-09T08:40:07.100Z,13.50
2023-02-09T08:42:34.005Z,13.73
2023-02-09T08:45:00.855Z,13.63
2023-02-09T08:47:28.052Z,12.50
2023-02-09T08:49:55.666Z,13.80
2023-02-09T08:52:22.570Z,13.70
2023-02-09T08:54:49.469Z,14.37
2023-02-09T08:57:16.533Z,14.10
2023-02-09T08:59:43.395Z,14.40
2023-02-09T09:02:10.262Z,13.37
2023-02-09T09:04:37.253Z,14.73
2023-02-09T09:07:04.264Z,14.03
2023-02-09T09:09:31.142Z,14.17
2023-02-09T09:11:58.118Z,14.47
2023-02-09T09:14:26.678Z,13.70
2023-02-09T09:16:53.705Z,14.83
2023-02-09T09:19:20.643Z,14.13
2023-02-09T09:21:47.624Z,13.77
2023-02-09T09:24:14.504Z,14.77
2023-02-09T09:26:41.382Z,14.23
2023-02-09T09:29:09.857Z,14.07
2023-02-09T09:31:38.394Z,14.30
2023-02-09T09:34:05.664Z,14.00
2023-02-09T09:36:32.543Z,14.10
2023-02-09T09:38:59.545Z,14.20
2023-02-09T09:41:35.887Z,13.77
2023-02-09T09:44:04.838Z,14.13
2023-02-09T09:46:39.704Z,14.37
2023-02-09T09:49:07.643Z,14.70
2023-02-09T09:51:44.669Z,14.50
2023-02-09T09:54:21.310Z,14.00
2023-02-09T09:56:48.626Z,13.57
2023-02-09T09:59:22.249Z,13.70
2023-02-09T10:01:51.629Z,13.40
2023-02-09T10:04:20.926Z,16.30
2023-02-09T10:06:56.577Z,15.43
2023-02-09T10:09:31.297Z,15.93
2023-02-09T10:12:35.455Z,13.00
2023-02-09T10:15:37.161Z,13.20
2023-02-09T10:18:14.039Z,13.60
2023-02-09T10:21:05.329Z,14.33
2023-02-09T10:24:03.007Z,14.03
2023-02-09T10:26:37.856Z,14.40
2023-02-09T10:29:31.913Z,14.50
2023-02-09T10:32:18.253Z,12.20
2023-02-09T10:34:56.974Z,13.10
2023-02-09T10:37:44.309Z,14.03
2023-02-09T10:40:25.486Z,12.37
2023-02-09T10:42:58.977Z,11.63
2023-02-09T10:45:37.899Z,12.77
2023-02-09T10:48:22.299Z,12.87
2023-02-09T10:50:52.350Z,11.80
2023-02-09T10:53:24.012Z,12.40
2023-02-09T10:55:51.878Z,12.30
2023-02-09T10:58:29.236Z,11.27
2023-02-09T11:01:19.681Z,12.20
2023-02-09T11:03:59.362Z,12.60
2023-02-09T11:06:27.139Z,13.67
2023-02-09T11:09:07.447Z,11.70
2023-02-09T11:11:37.949Z,11.97
2023-02-09T11:14:14.512Z,11.80
2023-02-09T11:16:58.185Z,14.40
2023-02-09T11:20:20.280Z,11.70
2023-02-09T11:23:28.923Z,12.70
2023-02-09T11:26:17.226Z,12.13
2023-02-09T11:28:56.661Z,12.30
2023-02-09T11:31:56.849Z,11.17
2023-02-09T11:34:52.765Z,11.43
2023-02-09T11:38:06.309Z,11.47
2023-02-09T11:40:48.263Z,11.07
2023-02-09T11:43:21.695Z,11.23
2023-02-09T11:45:51.158Z,12.27
2023-02-09T11:48:34.611Z,12.03
2023-02-09T11:51:26.780Z,12.03
2023-02-09T11:54:24.710Z,11.10
2023-02-09T11:56:59.945Z,12.27
2023-02-09T11:59:40.539Z,10.97
2023-02-09T12:02:51.429Z,11.80
2023-02-09T12:05:20.720Z,12.23
2023-02-09T12:08:45.286Z,10.30
2023-02-09T12:11:41.799Z,11.40
2023-02-09T12:14:41.501Z,10.23
2023-02-09T12:17:35.676Z,11.10
2023-02-09T12:20:04.526Z,11.20
2023-02-09T12:22:52.163Z,10.43
2023-02-09T12:25:35.288Z,10.40
2023-02-09T12:28:24.295Z,10.60
2023-02-09T12:31:02.627Z,10.60
2023-02-09T12:34:06.465Z,11.10
2023-02-09T12:36:34.825Z,10.50
2023-02-09T12:39:25.225Z,10.50
2023-02-09T12:42:12.340Z,10.00
2023-02-09T12:44:53.208Z,10.70
2023-02-09T12:47:39.891Z,9.90
2023-02-09T12:50:22.128Z,10.43
2023-02-09T12:53:43.382Z,10.63
2023-02-09T12:56:10.638Z,10.83
2023-02-09T12:59:05.347Z,10.43
2023-02-09T13:02:12.437Z,9.87
2023-02-09T13:05:02.281Z,10.13
2023-02-09T13:08:16.599Z,8.97
2023-02-09T13:11:23.533Z,9.10
2023-02-09T13:14:01.999Z,9.50
2023-02-09T13:17:03.666Z,8.97
2023-02-09T13:20:17.027Z,9.67
2023-02-09T13:22:59.380Z,10.23
2023-02-09T13:25:36.344Z,10.27
2023-02-09T13:28:19.778Z,9.90
2023-02-09T13:30:48.011Z,7.93
2023-02-09T13:33:44.592Z,8.40
2023-02-09T13:37:06.593Z,9.77
2023-02-09T13:39:38.522Z,8.73
2023-02-09T13:42:26.494Z,8.20
2023-02-09T13:44:56.852Z,9.20
2023-02-09T13:47:24.768Z,9.40
2023-02-09T13:50:14.453Z,9.57
2023-02-09T13:52:41.488Z,9.30
2023-02-09T13:55:09.786Z,9.30
2023-02-09T13:57:38.579Z,8.93
2023-02-09T14:00:26.782Z,9.40
2023-02-09T14:03:02.466Z,8.90
2023-02-09T14:05:41.484Z,9.13
2023-02-09T14:08:09.961Z,9.70
2023-02-09T14:10:37.936Z,11.53
2023-02-09T14:13:37.245Z,9.60
2023-02-09T14:16:06.966Z,10.37
2023-02-09T14:19:00.678Z,9.90
2023-02-09T14:21:59.870Z,9.77
2023-02-09T14:24:28.404Z,10.33
2023-02-09T14:27:25.956Z,10.27
2023-02-09T14:29:54.420Z,9.30
2023-02-09T14:32:45.442Z,8.73
2023-02-09T14:35:28.844Z,9.97
2023-02-09T14:37:58.839Z,9.67
2023-02-09T14:40:34.765Z,10.57
2023-02-09T14:43:25.452Z,10.37
2023-02-09T14:46:00.353Z,8.90
2023-02-09T14:48:31.572Z,10.53
2023-02-09T14:51:01.707Z,11.63
2023-02-09T14:53:31.519Z,11.70
2023-02-09T14:55:58.939Z,10.93
2023-02-09T14:58:28.516Z,10.13
2023-02-09T15:00:57.532Z,10.53
2023-02-09T15:03:24.567Z,10.20
2023-02-09T15:05:55.892Z,9.40
2023-02-09T15:08:25.746Z,7.90
2023-02-09T15:10:59.654Z,8.87
2023-02-09T15:13:30.528Z,9.30
2023-02-09T15:15:57.553Z,9.80
2023-02-09T15:18:26.671Z,10.30
2023-02-09T15:20:53.809Z,10.40
2023-02-09T15:23:20.686Z,9.60
2023-02-09T15:25:48.148Z,10.17
2023-02-09T15:28:28.237Z,10.67
2023-02-09T15:30:58.998Z,9.77
2023-02-09T15:33:27.663Z,10.00
2023-02-09T15:35:55.016Z,10.33
2023-02-09T15:38:22.587Z,10.83
2023-02-09T15:41:09.077Z,10.60
2023-02-09T15:43:54.787Z,9.87
2023-02-09T15:46:40.745Z,10.57
2023-02-09T15:49:07.875Z,9.00
2023-02-09T15:51:38.755Z,10.50
2023-02-09T15:54:20.576Z,9.80
2023-02-09T15:56:47.940Z,9.60
2023-02-09T15:59:21.023Z,9.77
2023-02-09T16:01:48.416Z,10.73
2023-02-09T16:04:15.408Z,10.40
2023-02-09T16:06:53.179Z,10.30
2023-02-09T16:09:24.394Z,9.43
2023-02-09T16:11:51.308Z,9.40
2023-02-09T16:14:21.349Z,10.63
2023-02-09T16:16:48.966Z,9.43
2023-02-09T16:19:17.041Z,10.40
2023-02-09T16:21:48.958Z,10.60
2023-02-09T16:24:48.447Z,10.97
2023-02-09T16:27:21.812Z,10.60
2023-02-09T16:29:48.905Z,11.10
2023-02-09T16:32:22.799Z,10.80
2023-02-09T16:34:51.044Z,13.37
2023-02-09T16:37:28.289Z,11.70
2023-02-09T16:39:56.650Z,11.53
2023-02-09T16:42:25.530Z,12.90
2023-02-09T16:44:53.003Z,11.60
2023-02-09T16:47:22.241Z,11.57
2023-02-09T16:50:01.002Z,11.67
2023-02-09T16:52:30.338Z,12.03
2023-02-09T16:54:59.998Z,11.90
2023-02-09T16:57:28.842Z,12.30
2023-02-09T16:59:56.034Z,14.00
2023-02-09T17:02:46.145Z,13.10
2023-02-09T17:05:21.409Z,12.50
2023-02-09T17:08:01.031Z,11.70
2023-02-09T17:10:30.992Z,12.40
2023-02-09T17:12:58.625Z,11.87
2023-02-09T17:15:31.110Z,12.00
2023-02-09T17:18:03.905Z,13.00
2023-02-09T17:20:37.617Z,13.93
2023-02-09T17:23:05.498Z,13.97
2023-02-09T17:25:33.371Z,12.70
2023-02-09T17:28:00.421Z,13.33
2023-02-09T17:30:27.778Z,12.83
2023-02-09T17:33:00.350Z,14.17
2023-02-09T17:35:53.014Z,12.50
2023-02-09T17:38:32.412Z,13.30
2023-02-09T17:41:01.807Z,13.47
2023-02-09T17:43:28.835Z,12.97
2023-02-09T17:45:56.036Z,12.97
2023-02-09T17:48:23.885Z,11.80
2023-02-09T17:50:52.909Z,13.17
2023-02-09T17:53:22.628Z,13.60
2023-02-09T17:55:49.798Z,12.37
2023-02-09T17:58:17.570Z,13.80
2023-02-09T18:00:46.025Z,14.10
2023-02-09T18:03:18.586Z,13.43
2023-02-09T18:05:50.846Z,14.47
2023-02-09T18:08:19.067Z,14.67
2023-02-09T18:10:46.267Z,13.37
2023-02-09T18:13:20.656Z,13.63
2023-02-09T18:15:48.915Z,14.17
2023-02-09T18:18:16.173Z,12.90
2023-02-09T18:20:43.194Z,14.50
2023-02-09T18:23:19.160Z,13.33
2023-02-09T18:25:47.995Z,13.03
2023-02-09T18:28:16.785Z,16.27
2023-02-09T18:30:46.984Z,12.73
2023-02-09T18:33:16.451Z,13.73
2023-02-09T18:35:45.051Z,14.00
2023-02-09T18:38:14.325Z,14.03
2023-02-09T18:40:41.337Z,13.70
2023-02-09T18:43:08.736Z,16.43
2023-02-09T18:45:35.902Z,12.53
2023-02-09T18:48:03.544Z,13.03
2023-02-09T18:50:32.435Z,13.90
2023-02-09T18:53:02.232Z,13.77
2023-02-09T18:55:31.325Z,13.00
2023-02-09T18:58:00.446Z,13.07
2023-02-09T19:00:27.761Z,13.00
2023-02-09T19:02:58.964Z,13.40
2023-02-09T19:05:28.514Z,12.80
2023-02-09T19:07:56.024Z,13.53
2023-02-09T19:10:24.067Z,13.10
2023-02-09T19:12:51.565Z,14.13
2023-02-09T19:15:19.927Z,12.60
2023-02-09T19:17:47.295Z,13.77
2023-02-09T19:20:18.969Z,13.47
2023-02-09T19:22:47.593Z,13.80
2023-02-09T19:25:15.371Z,13.67
2023-02-09T19:27:42.549Z,14.30
2023-02-09T19:30:14.364Z,13.60
2023-02-09T19:32:41.364Z,14.70
2023-02-09T19:35:08.527Z,14.20
2023-02-09T19:37:36.334Z,13.80
2023-02-09T19:40:05.041Z,14.47
2023-02-09T19:42:32.870Z,14.10
2023-02-09T19:44:59.963Z,14.03
2023-02-09T19:47:27.517Z,14.43
2023-02-09T19:49:56.264Z,15.13
2023-02-09T19:52:24.312Z,15.97
2023-02-09T19:54:51.642Z,15.73
2023-02-09T19:57:19.933Z,13.00
2023-02-09T19:59:47.220Z,14.30
2023-02-09T20:02:16.508Z,14.67
2023-02-09T20:04:45.921Z,13.77
2023-02-09T20:07:14.117Z,13.40
2023-02-09T20:09:41.447Z,15.10
2023-02-09T20:12:08.656Z,15.23
2023-02-09T20:14:35.602Z,15.40
2023-02-09T20:17:02.497Z,15.40
2023-02-09T20:19:29.527Z,15.80
2023-02-09T20:21:56.567Z,15.53
2023-02-09T20:24:24.276Z,15.40
2023-02-09T20:26:51.230Z,16.30
2023-02-09T20:29:19.264Z,14.80
2023-02-09T20:31:53.662Z,17.27
2023-02-09T20:34:20.734Z,16.63
2023-02-09T20:36:48.299Z,17.43
2023-02-09T20:39:16.694Z,18.00
2023-02-09T20:42:06.632Z,19.40
2023-02-09T20:44:53.073Z,20.87
2023-02-09T20:47:20.300Z,19.17
2023-02-09T20:49:47.687Z,20.20
2023-02-09T20:52:14.701Z,21.50
2023-02-09T20:54:42.195Z,21.70
2023-02-09T20:57:09.930Z,21.27
2023-02-09T20:59:37.552Z,21.97
2023-02-09T21:02:07.788Z,22.80
2023-02-09T21:04:35.147Z,21.40
2023-02-09T21:07:04.513Z,22.87
2023-02-09T21:09:32.498Z,22.30
2023-02-09T21:11:59.548Z,23.57
2023-02-09T21:14:40.084Z,22.80
2023-02-09T21:17:08.516Z,23.70
2023-02-09T21:19:35.706Z,25.07
2023-02-09T21:22:02.573Z,21.30
2023-02-09T21:24:29.515Z,22.73
2023-02-09T21:26:56.497Z,23.97
2023-02-09T21:29:23.423Z,23.57
2023-02-09T21:31:52.391Z,25.40
2023-02-09T21:34:19.304Z,24.80
2023-02-09T21:36:46.283Z,25.27
2023-02-09T21:39:14.295Z,25.67
2023-02-09T21:41:59.668Z,26.80
2023-02-09T21:44:26.640Z,24.10
2023-02-09T21:46:54.427Z,25.60
2023-02-09T21:49:21.488Z,25.00
2023-02-09T21:51:48.526Z,26.20
2023-02-09T21:54:17.239Z,25.10
2023-02-09T21:56:44.857Z,25.63
2023-02-09T21:59:11.925Z,26.60
2023-02-09T22:01:39.657Z,25.33
2023-02-09T22:04:06.612Z,26.50
2023-02-09T22:06:33.498Z,25.87
2023-02-09T22:09:02.852Z,26.60
2023-02-09T22:11:30.012Z,27.20
2023-02-09T22:13:57.157Z,26.50
2023-02-09T22:16:24.988Z,25.30
2023-02-09T22:18:52.281Z,26.77
2023-02-09T22:21:19.322Z,25.57
2023-02-09T22:23:46.304Z,26.83
2023-02-09T22:26:14.620Z,26.27
2023-02-09T22:28:43.050Z,28.57
2023-02-09T22:31:20.261Z,26.73
2023-02-09T22:33:47.350Z,24.37
2023-02-09T22:36:17.258Z,26.00
2023-02-09T22:38:44.851Z,26.83
2023-02-09T22:41:22.476Z,27.20
2023-02-09T22:43:57.150Z,25.43
2023-02-09T22:46:27.264Z,24.83
2023-02-09T22:48:56.575Z,27.30
2023-02-09T22:51:25.183Z,26.07
2023-02-09T22:53:52.043Z,26.27
2023-02-09T22:56:18.911Z,26.13
2023-02-09T22:58:45.788Z,27.40
2023-02-09T23:01:13.743Z,29.20
2023-02-09T23:03:41.014Z,26.77
2023-02-09T23:06:10.866Z,26.97
2023-02-09T23:08:37.809Z,26.50
2023-02-09T23:11:07.048Z,26.90
2023-02-09T23:13:35.338Z,26.73
2023-02-09T23:16:17.699Z,26.57
2023-02-09T23:18:53.385Z,28.63
2023-02-09T23:21:22.745Z,26.23
2023-02-09T23:23:50.108Z,27.63
2023-02-09T23:26:18.216Z,27.17
2023-02-09T23:28:45.317Z,27.87
2023-02-09T23:31:17.969Z,27.00
2023-02-09T23:33:45.489Z,26.80
2023-02-09T23:36:16.483Z,27.60
2023-02-09T23:38:45.298Z,25.80
2023-02-09T23:41:17.215Z,28.73
2023-02-09T23:43:44.476Z,26.70
2023-02-09T23:46:14.576Z,27.43
2023-02-09T23:48:44.571Z,28.27
2023-02-09T23:51:26.829Z,27.27
2023-02-09T23:53:55.422Z,29.00
2023-02-09T23:56:23.114Z,26.10
2023-02-09T23:58:52.071Z,29.37
